sensor_id;sensor_type;location;lat;lon;timestamp;temperature;humidity
29775;DHT22;16676;51.202;6.774;2023-04-25T00:00:59;19.90;65.10
29775;DHT22;16676;51.202;6.774;2023-04-25T00:05:02;19.90;65.10
29775;DHT22;16676;51.202;6.774;2023-04-25T00:09:06;19.90;65.10
29775;DHT22;16676;51.202;6.774;2023-04-25T00:13:09;19.90;65.30
29775;DHT22;16676;51.202;6.774;2023-04-25T00:17:12;19.90;65.40
29775;DHT22;16676;51.202;6.774;2023-04-25T00:21:15;19.80;65.30
29775;DHT22;16676;51.202;6.774;2023-04-25T00:25:19;19.90;65.40
29775;DHT22;16676;51.202;6.774;2023-04-25T00:29:20;19.80;65.60
29775;DHT22;16676;51.202;6.774;2023-04-25T00:33:22;19.80;65.70
29775;DHT22;16676;51.202;6.774;2023-04-25T00:37:26;19.80;65.60
29775;DHT22;16676;51.202;6.774;2023-04-25T00:41:28;19.70;65.80
29775;DHT22;16676;51.202;6.774;2023-04-25T00:45:30;19.70;65.90
29775;DHT22;16676;51.202;6.774;2023-04-25T00:49:33;19.70;65.70
29775;DHT22;16676;51.202;6.774;2023-04-25T00:53:36;19.70;65.90
29775;DHT22;16676;51.202;6.774;2023-04-25T00:57:39;19.70;65.90
29775;DHT22;16676;51.202;6.774;2023-04-25T01:01:41;19.70;65.80
29775;DHT22;16676;51.202;6.774;2023-04-25T01:05:43;19.70;66.00
29775;DHT22;16676;51.202;6.774;2023-04-25T01:09:47;19.70;65.90
29775;DHT22;16676;51.202;6.774;2023-04-25T01:13:49;19.70;66.20
29775;DHT22;16676;51.202;6.774;2023-04-25T01:17:51;19.60;66.00
29775;DHT22;16676;51.202;6.774;2023-04-25T01:21:55;19.60;66.20
29775;DHT22;16676;51.202;6.774;2023-04-25T01:25:57;19.60;66.30
29775;DHT22;16676;51.202;6.774;2023-04-25T01:29:59;19.60;66.30
29775;DHT22;16676;51.202;6.774;2023-04-25T01:34:01;19.60;66.30
29775;DHT22;16676;51.202;6.774;2023-04-25T01:38:04;19.60;66.70
29775;DHT22;16676;51.202;6.774;2023-04-25T01:42:06;19.60;66.60
29775;DHT22;16676;51.202;6.774;2023-04-25T01:46:08;19.50;66.80
29775;DHT22;16676;51.202;6.774;2023-04-25T01:50:11;19.50;66.80
29775;DHT22;16676;51.202;6.774;2023-04-25T01:54:14;19.50;67.10
29775;DHT22;16676;51.202;6.774;2023-04-25T01:58:16;19.50;66.80
29775;DHT22;16676;51.202;6.774;2023-04-25T02:02:18;19.50;66.90
29775;DHT22;16676;51.202;6.774;2023-04-25T02:06:20;19.50;67.00
29775;DHT22;16676;51.202;6.774;2023-04-25T02:10:23;19.50;67.10
29775;DHT22;16676;51.202;6.774;2023-04-25T02:14:25;19.40;67.40
29775;DHT22;16676;51.202;6.774;2023-04-25T02:18:27;19.40;67.00
29775;DHT22;16676;51.202;6.774;2023-04-25T02:22:29;19.40;67.30
29775;DHT22;16676;51.202;6.774;2023-04-25T02:26:32;19.40;67.30
29775;DHT22;16676;51.202;6.774;2023-04-25T02:30:34;19.40;67.30
29775;DHT22;16676;51.202;6.774;2023-04-25T02:34:36;19.40;67.50
29775;DHT22;16676;51.202;6.774;2023-04-25T02:38:38;19.40;68.10
29775;DHT22;16676;51.202;6.774;2023-04-25T02:42:42;19.40;67.40
29775;DHT22;16676;51.202;6.774;2023-04-25T02:46:46;19.30;67.50
29775;DHT22;16676;51.202;6.774;2023-04-25T02:50:48;19.30;67.50
29775;DHT22;16676;51.202;6.774;2023-04-25T02:54:50;19.30;67.60
29775;DHT22;16676;51.202;6.774;2023-04-25T02:58:53;19.30;67.60
29775;DHT22;16676;51.202;6.774;2023-04-25T03:02:55;19.30;67.70
29775;DHT22;16676;51.202;6.774;2023-04-25T03:06:57;19.30;67.50
29775;DHT22;16676;51.202;6.774;2023-04-25T03:10:59;19.30;67.80
29775;DHT22;16676;51.202;6.774;2023-04-25T03:15:03;19.30;68.70
29775;DHT22;16676;51.202;6.774;2023-04-25T03:19:06;19.30;67.70
29775;DHT22;16676;51.202;6.774;2023-04-25T03:23:07;19.30;67.60
29775;DHT22;16676;51.202;6.774;2023-04-25T03:27:09;19.20;68.40
29775;DHT22;16676;51.202;6.774;2023-04-25T03:31:13;19.30;67.50
29775;DHT22;16676;51.202;6.774;2023-04-25T03:35:15;19.20;67.60
29775;DHT22;16676;51.202;6.774;2023-04-25T03:39:17;19.20;67.60
29775;DHT22;16676;51.202;6.774;2023-04-25T03:43:19;19.20;67.50
29775;DHT22;16676;51.202;6.774;2023-04-25T03:47:22;19.20;67.40
29775;DHT22;16676;51.202;6.774;2023-04-25T03:51:24;19.20;67.50
29775;DHT22;16676;51.202;6.774;2023-04-25T03:55:26;19.20;67.50
29775;DHT22;16676;51.202;6.774;2023-04-25T03:59:28;19.20;67.50
29775;DHT22;16676;51.202;6.774;2023-04-25T04:03:31;19.20;67.50
29775;DHT22;16676;51.202;6.774;2023-04-25T04:07:33;19.10;67.60
29775;DHT22;16676;51.202;6.774;2023-04-25T04:11:40;19.10;67.60
29775;DHT22;16676;51.202;6.774;2023-04-25T04:15:42;19.10;67.60
29775;DHT22;16676;51.202;6.774;2023-04-25T04:19:45;19.10;67.60
29775;DHT22;16676;51.202;6.774;2023-04-25T04:23:47;19.10;67.70
29775;DHT22;16676;51.202;6.774;2023-04-25T04:27:49;19.10;67.90
29775;DHT22;16676;51.202;6.774;2023-04-25T04:31:52;19.10;67.70
29775;DHT22;16676;51.202;6.774;2023-04-25T04:35:55;19.10;67.70
29775;DHT22;16676;51.202;6.774;2023-04-25T04:39:57;19.10;67.50
29775;DHT22;16676;51.202;6.774;2023-04-25T04:43:59;19.10;67.60
29775;DHT22;16676;51.202;6.774;2023-04-25T04:48:01;19.10;67.40
29775;DHT22;16676;51.202;6.774;2023-04-25T04:52:05;19.10;67.60
29775;DHT22;16676;51.202;6.774;2023-04-25T04:56:07;19.20;67.80
29775;DHT22;16676;51.202;6.774;2023-04-25T05:00:10;19.20;67.80
29775;DHT22;16676;51.202;6.774;2023-04-25T05:04:12;19.20;67.70
29775;DHT22;16676;51.202;6.774;2023-04-25T05:08:16;19.20;67.50
29775;DHT22;16676;51.202;6.774;2023-04-25T05:12:18;19.20;67.50
29775;DHT22;16676;51.202;6.774;2023-04-25T05:16:20;19.20;67.20
29775;DHT22;16676;51.202;6.774;2023-04-25T05:20:22;19.20;67.30
29775;DHT22;16676;51.202;6.774;2023-04-25T05:24:25;19.30;67.10
29775;DHT22;16676;51.202;6.774;2023-04-25T05:28:27;19.30;67.20
29775;DHT22;16676;51.202;6.774;2023-04-25T05:32:29;19.30;66.90
29775;DHT22;16676;51.202;6.774;2023-04-25T05:36:31;19.20;66.70
29775;DHT22;16676;51.202;6.774;2023-04-25T05:40:34;19.30;66.80
29775;DHT22;16676;51.202;6.774;2023-04-25T05:44:36;19.20;65.60
29775;DHT22;16676;51.202;6.774;2023-04-25T05:48:38;19.10;61.60
29775;DHT22;16676;51.202;6.774;2023-04-25T05:52:40;19.00;59.80
29775;DHT22;16676;51.202;6.774;2023-04-25T05:56:44;18.90;59.90
29775;DHT22;16676;51.202;6.774;2023-04-25T06:00:46;19.00;59.20
29775;DHT22;16676;51.202;6.774;2023-04-25T06:04:49;18.90;59.10
29775;DHT22;16676;51.202;6.774;2023-04-25T06:08:51;19.00;60.50
29775;DHT22;16676;51.202;6.774;2023-04-25T06:12:54;19.00;60.50
29775;DHT22;16676;51.202;6.774;2023-04-25T06:16:56;19.10;60.60
29775;DHT22;16676;51.202;6.774;2023-04-25T06:20:58;19.10;60.70
29775;DHT22;16676;51.202;6.774;2023-04-25T06:25:00;19.20;60.50
29775;DHT22;16676;51.202;6.774;2023-04-25T06:29:05;19.10;60.60
29775;DHT22;16676;51.202;6.774;2023-04-25T06:33:07;19.20;60.20
29775;DHT22;16676;51.202;6.774;2023-04-25T06:37:10;19.20;60.30
29775;DHT22;16676;51.202;6.774;2023-04-25T06:41:12;19.20;60.00
29775;DHT22;16676;51.202;6.774;2023-04-25T06:45:15;19.20;59.90
29775;DHT22;16676;51.202;6.774;2023-04-25T06:49:17;19.20;59.60
29775;DHT22;16676;51.202;6.774;2023-04-25T06:53:19;19.30;59.40
29775;DHT22;16676;51.202;6.774;2023-04-25T06:57:21;19.30;59.30
29775;DHT22;16676;51.202;6.774;2023-04-25T07:01:24;19.30;59.10
29775;DHT22;16676;51.202;6.774;2023-04-25T07:05:26;19.40;58.90
29775;DHT22;16676;51.202;6.774;2023-04-25T07:09:27;19.40;58.90
29775;DHT22;16676;51.202;6.774;2023-04-25T07:13:29;19.50;58.80
29775;DHT22;16676;51.202;6.774;2023-04-25T07:17:33;19.50;58.70
29775;DHT22;16676;51.202;6.774;2023-04-25T07:21:35;19.60;58.60
29775;DHT22;16676;51.202;6.774;2023-04-25T07:25:37;19.60;58.50
29775;DHT22;16676;51.202;6.774;2023-04-25T07:29:39;19.70;58.30
29775;DHT22;16676;51.202;6.774;2023-04-25T07:33:42;19.60;58.10
29775;DHT22;16676;51.202;6.774;2023-04-25T07:37:44;19.60;58.20
29775;DHT22;16676;51.202;6.774;2023-04-25T07:41:46;19.70;58.00
29775;DHT22;16676;51.202;6.774;2023-04-25T07:45:48;19.70;57.80
29775;DHT22;16676;51.202;6.774;2023-04-25T07:49:51;19.60;57.70
29775;DHT22;16676;51.202;6.774;2023-04-25T07:53:53;19.70;57.50
29775;DHT22;16676;51.202;6.774;2023-04-25T07:57:55;19.70;57.30
29775;DHT22;16676;51.202;6.774;2023-04-25T08:01:57;19.70;57.20
29775;DHT22;16676;51.202;6.774;2023-04-25T08:06:00;19.70;57.30
29775;DHT22;16676;51.202;6.774;2023-04-25T08:10:02;19.70;57.10
29775;DHT22;16676;51.202;6.774;2023-04-25T08:14:04;19.60;57.10
29775;DHT22;16676;51.202;6.774;2023-04-25T08:18:06;19.60;57.00
29775;DHT22;16676;51.202;6.774;2023-04-25T08:22:09;19.70;56.80
29775;DHT22;16676;51.202;6.774;2023-04-25T08:26:12;19.60;56.10
29775;DHT22;16676;51.202;6.774;2023-04-25T08:30:14;19.60;55.30
29775;DHT22;16676;51.202;6.774;2023-04-25T08:34:16;19.40;52.60
29775;DHT22;16676;51.202;6.774;2023-04-25T08:38:19;19.30;52.40
29775;DHT22;16676;51.202;6.774;2023-04-25T08:42:23;19.20;51.20
29775;DHT22;16676;51.202;6.774;2023-04-25T08:46:25;19.10;50.00
29775;DHT22;16676;51.202;6.774;2023-04-25T08:50:28;19.00;49.40
29775;DHT22;16676;51.202;6.774;2023-04-25T08:54:32;19.10;48.90
29775;DHT22;16676;51.202;6.774;2023-04-25T08:58:35;19.30;48.90
29775;DHT22;16676;51.202;6.774;2023-04-25T09:02:37;19.10;47.00
29775;DHT22;16676;51.202;6.774;2023-04-25T09:06:40;19.20;47.40
29775;DHT22;16676;51.202;6.774;2023-04-25T09:10:43;19.00;46.50
29775;DHT22;16676;51.202;6.774;2023-04-25T09:15:01;19.10;47.20
29775;DHT22;16676;51.202;6.774;2023-04-25T09:19:04;19.00;48.10
29775;DHT22;16676;51.202;6.774;2023-04-25T09:23:06;19.00;46.30
29775;DHT22;16676;51.202;6.774;2023-04-25T09:27:11;18.90;47.30
29775;DHT22;16676;51.202;6.774;2023-04-25T09:31:21;18.80;47.30
29775;DHT22;16676;51.202;6.774;2023-04-25T09:35:25;18.80;45.60
29775;DHT22;16676;51.202;6.774;2023-04-25T09:39:28;18.80;45.60
29775;DHT22;16676;51.202;6.774;2023-04-25T09:43:31;19.00;46.40
29775;DHT22;16676;51.202;6.774;2023-04-25T09:47:37;19.10;47.10
29775;DHT22;16676;51.202;6.774;2023-04-25T09:51:39;19.10;44.90
29775;DHT22;16676;51.202;6.774;2023-04-25T09:55:42;19.00;44.80
29775;DHT22;16676;51.202;6.774;2023-04-25T09:59:48;18.90;46.40
29775;DHT22;16676;51.202;6.774;2023-04-25T10:03:50;18.90;44.50
29775;DHT22;16676;51.202;6.774;2023-04-25T10:07:54;19.10;45.00
29775;DHT22;16676;51.202;6.774;2023-04-25T10:11:56;19.30;45.50
29775;DHT22;16676;51.202;6.774;2023-04-25T10:16:02;19.30;45.80
29775;DHT22;16676;51.202;6.774;2023-04-25T10:20:06;19.40;46.30
29775;DHT22;16676;51.202;6.774;2023-04-25T10:24:11;19.50;46.70
29775;DHT22;16676;51.202;6.774;2023-04-25T10:28:13;19.50;47.20
29775;DHT22;16676;51.202;6.774;2023-04-25T10:32:16;19.50;47.50
29775;DHT22;16676;51.202;6.774;2023-04-25T10:36:20;19.60;47.70
29775;DHT22;16676;51.202;6.774;2023-04-25T10:40:23;19.60;48.00
29775;DHT22;16676;51.202;6.774;2023-04-25T10:44:26;19.70;48.30
29775;DHT22;16676;51.202;6.774;2023-04-25T10:48:31;19.70;48.70
29775;DHT22;16676;51.202;6.774;2023-04-25T10:52:33;19.70;48.80
29775;DHT22;16676;51.202;6.774;2023-04-25T10:56:37;19.80;49.00
29775;DHT22;16676;51.202;6.774;2023-04-25T11:00:40;19.80;49.10
29775;DHT22;16676;51.202;6.774;2023-04-25T11:04:44;19.90;49.30
29775;DHT22;16676;51.202;6.774;2023-04-25T11:08:49;20.00;49.20
29775;DHT22;16676;51.202;6.774;2023-04-25T11:12:51;20.10;49.20
29775;DHT22;16676;51.202;6.774;2023-04-25T11:16:53;20.20;49.40
29775;DHT22;16676;51.202;6.774;2023-04-25T11:20:57;20.20;49.50
29775;DHT22;16676;51.202;6.774;2023-04-25T11:25:04;20.20;49.70
29775;DHT22;16676;51.202;6.774;2023-04-25T11:29:06;20.20;49.70
29775;DHT22;16676;51.202;6.774;2023-04-25T11:33:09;20.20;50.00
29775;DHT22;16676;51.202;6.774;2023-04-25T11:37:13;20.30;50.10
29775;DHT22;16676;51.202;6.774;2023-04-25T11:41:15;20.20;50.20
29775;DHT22;16676;51.202;6.774;2023-04-25T11:45:17;20.30;50.30
29775;DHT22;16676;51.202;6.774;2023-04-25T11:49:19;20.30;50.50
29775;DHT22;16676;51.202;6.774;2023-04-25T11:53:23;20.30;50.60
29775;DHT22;16676;51.202;6.774;2023-04-25T11:57:31;20.40;50.40
29775;DHT22;16676;51.202;6.774;2023-04-25T12:01:34;20.50;50.50
29775;DHT22;16676;51.202;6.774;2023-04-25T12:05:37;20.50;50.30
29775;DHT22;16676;51.202;6.774;2023-04-25T12:09:41;20.50;50.50
29775;DHT22;16676;51.202;6.774;2023-04-25T12:13:44;20.60;50.40
29775;DHT22;16676;51.202;6.774;2023-04-25T12:17:46;20.60;50.30
29775;DHT22;16676;51.202;6.774;2023-04-25T12:21:49;20.70;50.50
29775;DHT22;16676;51.202;6.774;2023-04-25T12:25:52;20.70;50.50
29775;DHT22;16676;51.202;6.774;2023-04-25T12:29:55;20.60;50.60
29775;DHT22;16676;51.202;6.774;2023-04-25T12:33:57;20.60;50.80
29775;DHT22;16676;51.202;6.774;2023-04-25T12:37:59;20.60;50.90
29775;DHT22;16676;51.202;6.774;2023-04-25T12:42:03;20.60;51.00
29775;DHT22;16676;51.202;6.774;2023-04-25T12:46:05;20.60;50.80
29775;DHT22;16676;51.202;6.774;2023-04-25T12:50:07;20.60;50.60
29775;DHT22;16676;51.202;6.774;2023-04-25T12:54:09;20.60;50.50
29775;DHT22;16676;51.202;6.774;2023-04-25T12:58:12;20.70;50.40
29775;DHT22;16676;51.202;6.774;2023-04-25T13:02:14;20.70;50.20
29775;DHT22;16676;51.202;6.774;2023-04-25T13:06:18;20.80;50.20
29775;DHT22;16676;51.202;6.774;2023-04-25T13:10:20;20.80;50.10
29775;DHT22;16676;51.202;6.774;2023-04-25T13:14:24;20.80;50.00
29775;DHT22;16676;51.202;6.774;2023-04-25T13:18:25;20.80;50.20
29775;DHT22;16676;51.202;6.774;2023-04-25T13:22:27;20.80;50.40
29775;DHT22;16676;51.202;6.774;2023-04-25T13:26:29;20.80;50.70
29775;DHT22;16676;51.202;6.774;2023-04-25T13:30:33;20.70;51.00
29775;DHT22;16676;51.202;6.774;2023-04-25T13:34:35;20.70;51.20
29775;DHT22;16676;51.202;6.774;2023-04-25T13:38:37;20.70;51.20
29775;DHT22;16676;51.202;6.774;2023-04-25T13:42:39;20.80;51.20
29775;DHT22;16676;51.202;6.774;2023-04-25T13:46:43;20.80;51.30
29775;DHT22;16676;51.202;6.774;2023-04-25T13:50:46;20.80;51.50
29775;DHT22;16676;51.202;6.774;2023-04-25T13:54:48;20.80;51.60
29775;DHT22;16676;51.202;6.774;2023-04-25T13:58:51;20.90;51.60
29775;DHT22;16676;51.202;6.774;2023-04-25T14:02:54;20.90;51.80
29775;DHT22;16676;51.202;6.774;2023-04-25T14:06:56;20.90;51.90
29775;DHT22;16676;51.202;6.774;2023-04-25T14:10:58;20.90;52.00
29775;DHT22;16676;51.202;6.774;2023-04-25T14:15:00;21.00;52.00
29775;DHT22;16676;51.202;6.774;2023-04-25T14:19:03;21.00;52.20
29775;DHT22;16676;51.202;6.774;2023-04-25T14:23:05;21.00;52.30
29775;DHT22;16676;51.202;6.774;2023-04-25T14:27:07;21.10;52.40
29775;DHT22;16676;51.202;6.774;2023-04-25T14:31:09;21.10;52.40
29775;DHT22;16676;51.202;6.774;2023-04-25T14:35:12;21.10;52.60
29775;DHT22;16676;51.202;6.774;2023-04-25T14:39:14;21.10;52.70
29775;DHT22;16676;51.202;6.774;2023-04-25T14:43:17;21.00;52.80
29775;DHT22;16676;51.202;6.774;2023-04-25T14:47:19;21.00;53.00
29775;DHT22;16676;51.202;6.774;2023-04-25T14:51:22;21.00;53.00
29775;DHT22;16676;51.202;6.774;2023-04-25T14:55:24;21.00;53.00
29775;DHT22;16676;51.202;6.774;2023-04-25T14:59:26;21.10;53.20
29775;DHT22;16676;51.202;6.774;2023-04-25T15:03:28;21.10;53.50
29775;DHT22;16676;51.202;6.774;2023-04-25T15:07:32;20.90;45.90
29775;DHT22;16676;51.202;6.774;2023-04-25T15:11:34;20.50;45.70
29775;DHT22;16676;51.202;6.774;2023-04-25T15:15:36;20.30;44.50
29775;DHT22;16676;51.202;6.774;2023-04-25T15:19:38;20.10;45.50
29775;DHT22;16676;51.202;6.774;2023-04-25T15:23:41;20.00;45.40
29775;DHT22;16676;51.202;6.774;2023-04-25T15:27:44;19.90;45.60
29775;DHT22;16676;51.202;6.774;2023-04-25T15:31:48;19.80;45.50
29775;DHT22;16676;51.202;6.774;2023-04-25T15:35:50;19.80;45.30
29775;DHT22;16676;51.202;6.774;2023-04-25T15:40:01;19.70;46.50
29775;DHT22;16676;51.202;6.774;2023-04-25T15:44:07;19.70;46.00
29775;DHT22;16676;51.202;6.774;2023-04-25T15:48:10;19.60;44.30
29775;DHT22;16676;51.202;6.774;2023-04-25T15:52:12;19.60;44.60
29775;DHT22;16676;51.202;6.774;2023-04-25T15:56:15;19.60;45.70
29775;DHT22;16676;51.202;6.774;2023-04-25T16:00:18;19.60;44.70
29775;DHT22;16676;51.202;6.774;2023-04-25T16:04:21;19.50;44.70
29775;DHT22;16676;51.202;6.774;2023-04-25T16:08:24;19.50;45.00
29775;DHT22;16676;51.202;6.774;2023-04-25T16:12:30;19.50;45.20
29775;DHT22;16676;51.202;6.774;2023-04-25T16:16:32;19.50;45.30
29775;DHT22;16676;51.202;6.774;2023-04-25T16:20:34;19.40;44.40
29775;DHT22;16676;51.202;6.774;2023-04-25T16:24:36;19.40;45.80
29775;DHT22;16676;51.202;6.774;2023-04-25T16:28:39;19.40;44.90
29775;DHT22;16676;51.202;6.774;2023-04-25T16:32:42;19.30;44.80
29775;DHT22;16676;51.202;6.774;2023-04-25T16:36:43;19.30;46.30
29775;DHT22;16676;51.202;6.774;2023-04-25T16:40:45;19.30;45.40
29775;DHT22;16676;51.202;6.774;2023-04-25T16:44:49;19.30;44.30
29775;DHT22;16676;51.202;6.774;2023-04-25T16:48:51;19.30;45.50
29775;DHT22;16676;51.202;6.774;2023-04-25T16:52:53;19.40;44.20
29775;DHT22;16676;51.202;6.774;2023-04-25T16:56:55;19.30;45.20
29775;DHT22;16676;51.202;6.774;2023-04-25T17:00:59;19.30;44.00
29775;DHT22;16676;51.202;6.774;2023-04-25T17:05:01;19.20;43.00
29775;DHT22;16676;51.202;6.774;2023-04-25T17:09:02;19.10;42.80
29775;DHT22;16676;51.202;6.774;2023-04-25T17:13:05;19.00;43.00
29775;DHT22;16676;51.202;6.774;2023-04-25T17:17:08;19.00;43.20
29775;DHT22;16676;51.202;6.774;2023-04-25T17:21:10;19.00;43.90
29775;DHT22;16676;51.202;6.774;2023-04-25T17:25:12;19.00;42.80
29775;DHT22;16676;51.202;6.774;2023-04-25T17:29:14;19.00;43.90
29775;DHT22;16676;51.202;6.774;2023-04-25T17:33:18;19.00;42.60
29775;DHT22;16676;51.202;6.774;2023-04-25T17:37:19;18.90;43.30
29775;DHT22;16676;51.202;6.774;2023-04-25T17:41:22;19.00;43.80
29775;DHT22;16676;51.202;6.774;2023-04-25T17:45:25;19.00;44.20
29775;DHT22;16676;51.202;6.774;2023-04-25T17:49:31;19.10;44.20
29775;DHT22;16676;51.202;6.774;2023-04-25T17:53:34;19.10;45.70
29775;DHT22;16676;51.202;6.774;2023-04-25T17:57:36;19.10;46.10
29775;DHT22;16676;51.202;6.774;2023-04-25T18:01:38;19.10;46.80
29775;DHT22;16676;51.202;6.774;2023-04-25T18:05:41;19.10;47.80
29775;DHT22;16676;51.202;6.774;2023-04-25T18:09:43;19.30;46.90
29775;DHT22;16676;51.202;6.774;2023-04-25T18:13:45;19.20;46.60
29775;DHT22;16676;51.202;6.774;2023-04-25T18:17:47;19.20;46.60
29775;DHT22;16676;51.202;6.774;2023-04-25T18:21:52;19.10;46.60
29775;DHT22;16676;51.202;6.774;2023-04-25T18:25:55;19.10;47.10
29775;DHT22;16676;51.202;6.774;2023-04-25T18:29:56;19.00;46.90
29775;DHT22;16676;51.202;6.774;2023-04-25T18:33:59;19.00;46.90
29775;DHT22;16676;51.202;6.774;2023-04-25T18:38:02;19.10;47.00
29775;DHT22;16676;51.202;6.774;2023-04-25T18:42:04;19.00;47.30
29775;DHT22;16676;51.202;6.774;2023-04-25T18:46:06;19.00;47.40
29775;DHT22;16676;51.202;6.774;2023-04-25T18:50:09;19.00;47.40
29775;DHT22;16676;51.202;6.774;2023-04-25T18:54:13;18.90;47.40
29775;DHT22;16676;51.202;6.774;2023-04-25T18:58:15;18.90;47.50
29775;DHT22;16676;51.202;6.774;2023-04-25T19:02:17;18.90;47.90
29775;DHT22;16676;51.202;6.774;2023-04-25T19:06:20;18.90;47.70
29775;DHT22;16676;51.202;6.774;2023-04-25T19:10:25;18.90;47.70
29775;DHT22;16676;51.202;6.774;2023-04-25T19:14:30;18.80;47.60
29775;DHT22;16676;51.202;6.774;2023-04-25T19:18:32;18.90;47.80
29775;DHT22;16676;51.202;6.774;2023-04-25T19:22:34;18.80;47.60
29775;DHT22;16676;51.202;6.774;2023-04-25T19:26:38;18.80;47.80
29775;DHT22;16676;51.202;6.774;2023-04-25T19:30:40;18.80;47.70
29775;DHT22;16676;51.202;6.774;2023-04-25T19:34:42;18.80;47.60
29775;DHT22;16676;51.202;6.774;2023-04-25T19:38:45;18.80;48.00
29775;DHT22;16676;51.202;6.774;2023-04-25T19:42:48;18.80;48.50
29775;DHT22;16676;51.202;6.774;2023-04-25T19:46:50;18.90;48.40
29775;DHT22;16676;51.202;6.774;2023-04-25T19:50:52;18.90;48.60
29775;DHT22;16676;51.202;6.774;2023-04-25T19:54:54;18.90;48.90
29775;DHT22;16676;51.202;6.774;2023-04-25T19:58:59;18.90;49.10
29775;DHT22;16676;51.202;6.774;2023-04-25T20:03:01;19.00;49.30
29775;DHT22;16676;51.202;6.774;2023-04-25T20:07:04;18.90;49.30
29775;DHT22;16676;51.202;6.774;2023-04-25T20:11:05;19.00;49.50
29775;DHT22;16676;51.202;6.774;2023-04-25T20:15:09;18.90;49.50
29775;DHT22;16676;51.202;6.774;2023-04-25T20:19:12;18.90;49.60
29775;DHT22;16676;51.202;6.774;2023-04-25T20:23:14;19.00;49.70
29775;DHT22;16676;51.202;6.774;2023-04-25T20:27:16;18.90;49.80
29775;DHT22;16676;51.202;6.774;2023-04-25T20:31:19;18.90;50.00
29775;DHT22;16676;51.202;6.774;2023-04-25T20:35:21;18.90;50.10
29775;DHT22;16676;51.202;6.774;2023-04-25T20:39:23;18.90;50.30
29775;DHT22;16676;51.202;6.774;2023-04-25T20:43:26;18.90;50.50
29775;DHT22;16676;51.202;6.774;2023-04-25T20:47:30;18.90;50.60
29775;DHT22;16676;51.202;6.774;2023-04-25T20:51:33;18.90;50.70
29775;DHT22;16676;51.202;6.774;2023-04-25T20:55:35;18.90;50.80
29775;DHT22;16676;51.202;6.774;2023-04-25T20:59:37;18.90;50.80
29775;DHT22;16676;51.202;6.774;2023-04-25T21:03:40;18.90;50.50
29775;DHT22;16676;51.202;6.774;2023-04-25T21:07:43;18.80;50.20
29775;DHT22;16676;51.202;6.774;2023-04-25T21:11:45;18.80;50.30
29775;DHT22;16676;51.202;6.774;2023-04-25T21:15:47;18.80;50.50
29775;DHT22;16676;51.202;6.774;2023-04-25T21:19:50;18.80;50.60
29775;DHT22;16676;51.202;6.774;2023-04-25T21:23:52;18.80;50.80
29775;DHT22;16676;51.202;6.774;2023-04-25T21:27:55;18.70;50.80
29775;DHT22;16676;51.202;6.774;2023-04-25T21:31:57;18.70;50.90
29775;DHT22;16676;51.202;6.774;2023-04-25T21:36:00;18.70;51.00
29775;DHT22;16676;51.202;6.774;2023-04-25T21:40:02;18.70;51.10
29775;DHT22;16676;51.202;6.774;2023-04-25T21:44:05;18.70;51.10
29775;DHT22;16676;51.202;6.774;2023-04-25T21:48:07;18.70;51.20
29775;DHT22;16676;51.202;6.774;2023-04-25T21:52:10;18.70;51.30
29775;DHT22;16676;51.202;6.774;2023-04-25T21:56:12;18.70;51.40
29775;DHT22;16676;51.202;6.774;2023-04-25T22:00:15;18.70;51.50
29775;DHT22;16676;51.202;6.774;2023-04-25T22:04:24;18.70;51.60
29775;DHT22;16676;51.202;6.774;2023-04-25T22:08:27;18.70;51.70
29775;DHT22;16676;51.202;6.774;2023-04-25T22:12:29;18.70;51.80
29775;DHT22;16676;51.202;6.774;2023-04-25T22:16:31;18.70;51.80
29775;DHT22;16676;51.202;6.774;2023-04-25T22:20:33;18.60;51.90
29775;DHT22;16676;51.202;6.774;2023-04-25T22:24:37;18.70;52.10
29775;DHT22;16676;51.202;6.774;2023-04-25T22:28:39;18.60;52.10
29775;DHT22;16676;51.202;6.774;2023-04-25T22:32:41;18.60;52.20
29775;DHT22;16676;51.202;6.774;2023-04-25T22:36:43;18.60;52.20
29775;DHT22;16676;51.202;6.774;2023-04-25T22:40:47;18.60;52.30
29775;DHT22;16676;51.202;6.774;2023-04-25T22:44:49;18.60;52.40
29775;DHT22;16676;51.202;6.774;2023-04-25T22:48:51;18.60;52.50
29775;DHT22;16676;51.202;6.774;2023-04-25T22:52:53;18.60;52.60
29775;DHT22;16676;51.202;6.774;2023-04-25T22:56:57;18.50;52.70
29775;DHT22;16676;51.202;6.774;2023-04-25T23:00:59;18.60;52.70
29775;DHT22;16676;51.202;6.774;2023-04-25T23:05:01;18.50;52.80
29775;DHT22;16676;51.202;6.774;2023-04-25T23:09:04;18.50;52.90
29775;DHT22;16676;51.202;6.774;2023-04-25T23:13:09;18.50;52.90
29775;DHT22;16676;51.202;6.774;2023-04-25T23:17:11;18.50;53.00
29775;DHT22;16676;51.202;6.774;2023-04-25T23:21:15;18.50;53.00
29775;DHT22;16676;51.202;6.774;2023-04-25T23:25:17;18.50;53.20
29775;DHT22;16676;51.202;6.774;2023-04-25T23:29:20;18.50;53.20
29775;DHT22;16676;51.202;6.774;2023-04-25T23:33:22;18.50;53.30
29775;DHT22;16676;51.202;6.774;2023-04-25T23:37:24;18.50;53.40
29775;DHT22;16676;51.202;6.774;2023-04-25T23:41:26;18.50;53.60
29775;DHT22;16676;51.202;6.774;2023-04-25T23:45:29;18.50;53.60
29775;DHT22;16676;51.202;6.774;2023-04-25T23:49:31;18.40;53.70
29775;DHT22;16676;51.202;6.774;2023-04-25T23:53:33;18.40;53.80
29775;DHT22;16676;51.202;6.774;2023-04-25T23:57:35;18.40;53.80
